Time,TemperatureF,DewpointF,PressureIn,WindDirection,WindDirectionDegrees,WindSpeedMPH,WindSpeedGustMPH,Humidity,HourlyPrecipIn,Conditions,Clouds,dailyrainin,SoftwareType,DateUTC
2013-03-04 00:00:00,66.6,57.7,30.16,ENE,76,9.0,10.0,73,0.00,,,0.00,VWS V14.01,2013-03-04 10:00:00,
2013-03-04 00:05:00,66.5,57.6,30.16,East,99,10.0,10.0,73,0.00,,,0.00,VWS V14.01,2013-03-04 10:05:00,
2013-03-04 00:10:00,66.5,57.6,30.16,ENE,63,9.0,9.0,73,0.00,,,0.00,VWS V14.01,2013-03-04 10:10:00,
2013-03-04 00:15:00,66.4,57.5,30.16,East,80,4.0,5.0,73,0.00,,,0.00,VWS V14.01,2013-03-04 10:15:00,
2013-03-04 00:20:00,66.1,56.8,30.16,NE,38,5.0,5.0,72,0.00,,,0.00,VWS V14.01,2013-03-04 10:20:00,
2013-03-04 00:26:00,66.2,56.9,30.15,NNE,33,6.0,6.0,72,0.00,,,0.00,VWS V14.01,2013-03-04 10:26:00,
2013-03-04 00:31:00,66.4,56.7,30.15,ENE,64,3.0,4.0,71,0.00,,,0.00,VWS V14.01,2013-03-04 10:31:00,
2013-03-04 00:36:00,66.7,56.6,30.15,ENE,60,5.0,5.0,70,0.00,,,0.00,VWS V14.01,2013-03-04 10:36:00,
2013-03-04 00:41:00,66.8,56.3,30.15,NE,34,7.0,7.0,69,0.00,,,0.00,VWS V14.01,2013-03-04 10:41:00,
2013-03-04 00:46:00,66.9,56.0,30.15,NNE,28,5.0,7.0,68,0.00,,,0.00,VWS V14.01,2013-03-04 10:46:00,
2013-03-04 00:51:00,67.0,56.1,30.15,NE,37,4.0,6.0,68,0.00,,,0.00,VWS V14.01,2013-03-04 10:51:00,
2013-03-04 00:56:00,67.0,56.1,30.15,NNE,24,6.0,6.0,68,0.00,,,0.00,VWS V14.01,2013-03-04 10:56:00,
2013-03-04 01:01:00,67.0,56.5,30.15,NE,37,6.0,9.0,69,0.00,,,0.00,VWS V14.01,2013-03-04 11:01:00,
2013-03-04 01:06:00,67.0,56.5,30.15,NNE,22,6.0,6.0,69,0.00,,,0.00,VWS V14.01,2013-03-04 11:06:00,
2013-03-04 01:11:00,67.0,56.5,30.15,NNE,31,10.0,11.0,69,0.00,,,0.00,VWS V14.01,2013-03-04 11:11:00,
2013-03-04 01:16:00,67.0,56.5,30.15,North,7,10.0,10.0,69,0.00,,,0.00,VWS V14.01,2013-03-04 11:16:00,
2013-03-04 01:21:00,67.0,56.5,30.14,ENE,64,5.0,7.0,69,0.00,,,0.00,VWS V14.01,2013-03-04 11:21:00,
2013-03-04 01:26:00,67.0,56.5,30.14,ENE,78,6.0,7.0,69,0.00,,,0.00,VWS V14.01,2013-03-04 11:26:00,
2013-03-04 01:31:00,67.0,56.9,30.14,NNE,12,5.0,5.0,70,0.00,,,0.00,VWS V14.01,2013-03-04 11:31:00,
2013-03-04 01:36:00,66.9,56.8,30.14,NE,45,4.0,4.0,70,0.00,,,0.00,VWS V14.01,2013-03-04 11:36:00,
2013-03-04 01:41:00,66.9,57.2,30.14,ENE,65,2.0,5.0,71,0.00,,,0.00,VWS V14.01,2013-03-04 11:41:00,
2013-03-04 01:46:00,66.9,57.2,30.14,NE,35,7.0,7.0,71,0.00,,,0.00,VWS V14.01,2013-03-04 11:46:00,
2013-03-04 01:52:00,66.9,57.6,30.14,ENE,58,9.0,9.0,72,0.00,,,0.00,VWS V14.01,2013-03-04 11:52:00,
2013-03-04 01:57:00,66.9,57.6,30.13,NNE,20,6.0,6.0,72,0.00,,,0.00,VWS V14.01,2013-03-04 11:57:00,
2013-03-04 02:02:00,66.9,57.6,30.13,NE,53,4.0,7.0,72,0.00,,,0.00,VWS V14.01,2013-03-04 12:02:00,
2013-03-04 02:07:00,66.9,58.0,30.13,NE,47,10.0,10.0,73,0.00,,,0.00,VWS V14.01,2013-03-04 12:07:00,
2013-03-04 02:12:00,66.9,58.0,30.13,NE,43,6.0,7.0,73,0.00,,,0.00,VWS V14.01,2013-03-04 12:12:00,
2013-03-04 02:17:00,66.9,57.6,30.13,ENE,77,9.0,11.0,72,0.00,,,0.00,VWS V14.01,2013-03-04 12:17:00,
2013-03-04 02:22:00,66.9,56.8,30.13,ENE,78,9.0,9.0,70,0.00,,,0.00,VWS V14.01,2013-03-04 12:22:00,
2013-03-04 02:27:00,67.1,57.0,30.13,NE,52,4.0,4.0,70,0.00,,,0.00,VWS V14.01,2013-03-04 12:27:00,
2013-03-04 02:32:00,67.1,57.0,30.13,ENE,69,6.0,8.0,70,0.00,,,0.00,VWS V14.01,2013-03-04 12:32:00,
2013-03-04 02:37:00,67.0,58.1,30.13,East,82,5.0,7.0,73,0.00,,,0.00,VWS V14.01,2013-03-04 12:37:00,
2013-03-04 02:42:00,66.8,58.6,30.13,ENE,76,9.0,11.0,75,0.00,,,0.00,VWS V14.01,2013-03-04 12:42:00,
2013-03-04 02:47:00,66.8,58.6,30.13,East,90,8.0,8.0,75,0.00,,,0.00,VWS V14.01,2013-03-04 12:47:00,
2013-03-04 02:52:00,66.7,58.5,30.13,East,98,12.0,13.0,75,0.00,,,0.00,VWS V14.01,2013-03-04 12:52:00,
2013-03-04 02:57:00,66.8,58.6,30.12,ENE,76,6.0,9.0,75,0.00,,,0.00,VWS V14.01,2013-03-04 12:57:00,
2013-03-04 03:03:00,66.8,58.3,30.13,East,95,8.0,8.0,74,0.00,,,0.00,VWS V14.01,2013-03-04 13:03:00,
2013-03-04 03:08:00,66.8,57.9,30.13,ESE,118,11.0,12.0,73,0.00,,,0.00,VWS V14.01,2013-03-04 13:08:00,
2013-03-04 03:13:00,66.7,58.2,30.13,East,91,7.0,10.0,74,0.00,,,0.00,VWS V14.01,2013-03-04 13:13:00,
2013-03-04 03:18:00,66.7,58.2,30.13,East,95,8.0,12.0,74,0.00,,,0.00,VWS V14.01,2013-03-04 13:18:00,
2013-03-04 03:23:00,66.7,57.8,30.13,NE,54,9.0,9.0,73,0.00,,,0.00,VWS V14.01,2013-03-04 13:23:00,
2013-03-04 03:28:00,66.7,58.2,30.13,ENE,76,8.0,10.0,74,0.00,,,0.00,VWS V14.01,2013-03-04 13:28:00,
2013-03-04 03:33:00,66.6,58.4,30.13,East,85,9.0,9.0,75,0.00,,,0.00,VWS V14.01,2013-03-04 13:33:00,
2013-03-04 03:38:00,66.6,58.4,30.13,ENE,76,9.0,13.0,75,0.00,,,0.00,VWS V14.01,2013-03-04 13:38:00,
2013-03-04 03:43:00,66.5,58.3,30.13,East,80,6.0,10.0,75,0.00,,,0.00,VWS V14.01,2013-03-04 13:43:00,
2013-03-04 03:48:00,66.4,57.9,30.13,East,89,13.0,15.0,74,0.00,,,0.00,VWS V14.01,2013-03-04 13:48:00,
2013-03-04 03:54:00,66.4,57.9,30.13,East,95,11.0,12.0,74,0.00,,,0.00,VWS V14.01,2013-03-04 13:54:00,
2013-03-04 03:59:00,66.4,57.5,30.13,East,92,11.0,11.0,73,0.00,,,0.00,VWS V14.01,2013-03-04 13:59:00,
2013-03-04 04:04:00,66.4,57.1,30.13,East,94,8.0,10.0,72,0.00,,,0.00,VWS V14.01,2013-03-04 14:04:00,
2013-03-04 04:09:00,66.4,57.1,30.13,East,92,7.0,10.0,72,0.00,,,0.00,VWS V14.01,2013-03-04 14:09:00,
2013-03-04 04:14:00,66.4,57.1,30.13,ESE,104,10.0,10.0,72,0.00,,,0.00,VWS V14.01,2013-03-04 14:14:00,
2013-03-04 04:19:00,66.4,57.1,30.13,East,99,10.0,10.0,72,0.00,,,0.00,VWS V14.01,2013-03-04 14:19:00,
2013-03-04 04:24:00,66.4,57.1,30.13,ENE,66,12.0,13.0,72,0.00,,,0.00,VWS V14.01,2013-03-04 14:24:00,
2013-03-04 04:29:00,66.6,57.3,30.13,ESE,102,9.0,12.0,72,0.00,,,0.00,VWS V14.01,2013-03-04 14:29:00,
2013-03-04 04:35:00,66.5,57.2,30.14,East,96,11.0,16.0,72,0.00,,,0.00,VWS V14.01,2013-03-04 14:35:00,
2013-03-04 04:40:00,66.6,57.3,30.14,East,83,9.0,9.0,72,0.00,,,0.00,VWS V14.01,2013-03-04 14:40:00,
2013-03-04 04:45:00,66.4,56.7,30.14,ENE,71,10.0,15.0,71,0.00,,,0.00,VWS V14.01,2013-03-04 14:45:00,
2013-03-04 04:50:00,66.5,57.2,30.14,ENE,58,9.0,9.0,72,0.00,,,0.00,VWS V14.01,2013-03-04 14:50:00,
2013-03-04 04:55:00,66.5,57.2,30.14,East,99,9.0,11.0,72,0.00,,,0.00,VWS V14.01,2013-03-04 14:55:00,
2013-03-04 05:00:00,66.6,57.3,30.14,ESE,102,11.0,11.0,72,0.00,,,0.00,VWS V14.01,2013-03-04 15:00:00,
2013-03-04 05:05:00,66.5,57.2,30.14,East,99,12.0,12.0,72,0.00,,,0.00,VWS V14.01,2013-03-04 15:05:00,
2013-03-04 05:10:00,66.6,57.3,30.14,ENE,67,10.0,13.0,72,0.00,,,0.00,VWS V14.01,2013-03-04 15:10:00,
2013-03-04 05:15:00,66.7,57.0,30.14,East,95,7.0,7.0,71,0.00,,,0.00,VWS V14.01,2013-03-04 15:15:00,
2013-03-04 05:20:00,66.6,55.7,30.15,ESE,102,12.0,12.0,68,0.00,,,0.00,VWS V14.01,2013-03-04 15:20:00,
2013-03-04 05:25:00,66.8,55.5,30.15,ESE,104,13.0,15.0,67,0.00,,,0.00,VWS V14.01,2013-03-04 15:25:00,
2013-03-04 05:30:00,66.9,55.6,30.15,East,100,13.0,13.0,67,0.00,,,0.00,VWS V14.01,2013-03-04 15:30:00,
2013-03-04 05:36:00,66.8,55.5,30.15,NE,51,5.0,5.0,67,0.00,,,0.00,VWS V14.01,2013-03-04 15:36:00,
2013-03-04 05:41:00,66.7,55.8,30.15,East,99,11.0,12.0,68,0.00,,,0.00,VWS V14.01,2013-03-04 15:41:00,
2013-03-04 05:46:00,66.7,55.8,30.15,East,83,9.0,10.0,68,0.00,,,0.00,VWS V14.01,2013-03-04 15:46:00,
2013-03-04 05:51:00,66.8,56.7,30.15,East,85,7.0,11.0,70,0.00,,,0.00,VWS V14.01,2013-03-04 15:51:00,
2013-03-04 05:56:00,66.7,57.0,30.15,East,101,6.0,8.0,71,0.00,,,0.00,VWS V14.01,2013-03-04 15:56:00,
2013-03-04 06:01:00,66.8,56.3,30.15,East,86,9.0,9.0,69,0.00,,,0.00,VWS V14.01,2013-03-04 16:01:00,
2013-03-04 06:06:00,66.9,56.4,30.15,East,95,8.0,10.0,69,0.00,,,0.00,VWS V14.01,2013-03-04 16:06:00,
2013-03-04 06:11:00,66.9,55.6,30.15,ESE,104,11.0,12.0,67,0.00,,,0.00,VWS V14.01,2013-03-04 16:11:00,
2013-03-04 06:16:00,67.0,55.3,30.16,ENE,67,9.0,9.0,66,0.00,,,0.00,VWS V14.01,2013-03-04 16:16:00,
2013-03-04 06:21:00,67.0,56.5,30.16,ESE,106,13.0,13.0,69,0.00,,,0.00,VWS V14.01,2013-03-04 16:21:00,
2013-03-04 06:26:00,66.8,59.0,30.16,East,94,17.0,17.0,76,0.00,,,0.00,VWS V14.01,2013-03-04 16:26:00,
2013-03-04 06:31:00,66.5,59.1,30.16,East,80,15.0,16.0,77,0.00,,,0.00,VWS V14.01,2013-03-04 16:31:00,
2013-03-04 06:36:00,66.2,59.2,30.16,ENE,60,8.0,10.0,78,0.00,,,0.00,VWS V14.01,2013-03-04 16:36:00,
2013-03-04 06:41:00,66.1,59.4,30.16,ENE,66,12.0,12.0,79,0.00,,,0.00,VWS V14.01,2013-03-04 16:41:00,
2013-03-04 06:46:00,66.0,59.3,30.16,ENE,76,11.0,16.0,79,0.00,,,0.00,VWS V14.01,2013-03-04 16:46:00,
2013-03-04 06:51:00,65.8,59.1,30.16,NE,51,16.0,16.0,79,0.00,,,0.00,VWS V14.01,2013-03-04 16:51:00,
2013-03-04 06:57:00,65.9,59.2,30.16,ENE,58,12.0,15.0,79,0.00,,,0.00,VWS V14.01,2013-03-04 16:57:00,
2013-03-04 07:02:00,66.1,59.0,30.16,NE,48,8.0,9.0,78,0.00,,,0.00,VWS V14.01,2013-03-04 17:02:00,
2013-03-04 07:07:00,66.4,59.0,30.16,ENE,68,9.0,12.0,77,0.00,,,0.00,VWS V14.01,2013-03-04 17:07:00,
2013-03-04 07:12:00,66.7,59.3,30.16,ENE,78,9.0,10.0,77,0.00,,,0.00,VWS V14.01,2013-03-04 17:12:00,
2013-03-04 07:17:00,66.9,58.7,30.16,NE,50,12.0,15.0,75,0.00,,,0.00,VWS V14.01,2013-03-04 17:17:00,
2013-03-04 07:22:00,67.2,57.9,30.17,ENE,72,10.0,10.0,72,0.00,,,0.00,VWS V14.01,2013-03-04 17:22:00,
2013-03-04 07:27:00,67.5,57.0,30.16,ENE,66,8.0,8.0,69,0.00,,,0.00,VWS V14.01,2013-03-04 17:27:00,
2013-03-04 07:32:00,67.8,56.9,30.16,ENE,57,7.0,7.0,68,0.00,,,0.00,VWS V14.01,2013-03-04 17:32:00,
2013-03-04 07:37:00,67.7,56.0,30.17,East,81,7.0,8.0,66,0.00,,,0.00,VWS V14.01,2013-03-04 17:37:00,
2013-03-04 07:42:00,67.9,57.0,30.17,ENE,62,7.0,9.0,68,0.00,,,0.00,VWS V14.01,2013-03-04 17:42:00,
2013-03-04 07:48:00,67.7,56.8,30.17,ENE,65,11.0,14.0,68,0.00,,,0.00,VWS V14.01,2013-03-04 17:48:00,
2013-03-04 07:53:00,67.5,57.4,30.17,ENE,63,9.0,9.0,70,0.00,,,0.00,VWS V14.01,2013-03-04 17:53:00,
2013-03-04 07:58:00,67.5,57.0,30.17,ENE,71,10.0,11.0,69,0.00,,,0.00,VWS V14.01,2013-03-04 17:58:00,
2013-03-04 08:03:00,67.7,56.8,30.17,ENE,67,11.0,11.0,68,0.00,,,0.00,VWS V14.01,2013-03-04 18:03:00,
2013-03-04 08:08:00,68.2,56.0,30.17,ENE,72,8.0,12.0,65,0.00,,,0.00,VWS V14.01,2013-03-04 18:08:00,
2013-03-04 08:13:00,69.1,56.0,30.18,ENE,65,17.0,17.0,63,0.00,,,0.00,VWS V14.01,2013-03-04 18:13:00,
2013-03-04 08:18:00,69.7,56.1,30.18,East,80,11.0,12.0,62,0.00,,,0.00,VWS V14.01,2013-03-04 18:18:00,
2013-03-04 08:23:00,70.2,56.1,30.18,ENE,74,10.0,17.0,61,0.00,,,0.00,VWS V14.01,2013-03-04 18:23:00,
2013-03-04 08:28:00,70.5,56.0,30.18,East,88,9.0,9.0,60,0.00,,,0.00,VWS V14.01,2013-03-04 18:28:00,
2013-03-04 08:29:00,70.7,56.6,30.18,East,97,13.0,15.0,61,0.00,,,0.00,VWS V14.01,2013-03-04 18:29:00,
2013-03-04 08:30:00,70.7,55.7,30.18,East,99,11.0,11.0,59,0.00,,,0.00,VWS V14.01,2013-03-04 18:30:00,
2013-03-04 08:35:00,70.2,55.7,30.18,East,80,12.0,12.0,60,0.00,,,0.00,VWS V14.01,2013-03-04 18:35:00,
2013-03-04 08:40:00,69.6,55.1,30.18,East,87,8.0,10.0,60,0.00,,,0.00,VWS V14.01,2013-03-04 18:40:00,
2013-03-04 08:45:00,69.4,55.8,30.18,ESE,109,12.0,15.0,62,0.00,,,0.00,VWS V14.01,2013-03-04 18:45:00,
2013-03-04 08:50:00,69.3,56.2,30.18,ENE,76,10.0,12.0,63,0.00,,,0.00,VWS V14.01,2013-03-04 18:50:00,
2013-03-04 08:55:00,69.6,56.5,30.18,ENE,68,16.0,16.0,63,0.00,,,0.00,VWS V14.01,2013-03-04 18:55:00,
2013-03-04 09:00:00,69.4,55.8,30.18,ENE,68,8.0,8.0,62,0.00,,,0.00,VWS V14.01,2013-03-04 19:00:00,
2013-03-04 09:05:00,69.4,57.6,30.18,East,97,15.0,18.0,66,0.00,,,0.00,VWS V14.01,2013-03-04 19:05:00,
2013-03-04 09:10:00,69.2,59.0,30.18,East,90,11.0,14.0,70,0.00,,,0.00,VWS V14.01,2013-03-04 19:10:00,
2013-03-04 09:16:00,68.6,58.8,30.18,East,94,7.0,11.0,71,0.00,,,0.00,VWS V14.01,2013-03-04 19:16:00,
2013-03-04 09:21:00,68.4,58.6,30.18,East,83,16.0,16.0,71,0.00,,,0.00,VWS V14.01,2013-03-04 19:21:00,
2013-03-04 09:26:00,68.1,58.3,30.18,ENE,57,9.0,9.0,71,0.00,,,0.00,VWS V14.01,2013-03-04 19:26:00,
2013-03-04 09:31:00,68.2,58.5,30.18,ENE,59,13.0,13.0,71,0.00,,,0.00,VWS V14.01,2013-03-04 19:31:00,
2013-03-04 09:36:00,68.7,58.5,30.18,NE,44,13.0,15.0,70,0.00,,,0.00,VWS V14.01,2013-03-04 19:36:00,
2013-03-04 09:41:00,69.7,58.7,30.17,East,87,11.0,11.0,68,0.00,,,0.00,VWS V14.01,2013-03-04 19:41:00,
2013-03-04 09:46:00,69.6,58.6,30.17,East,99,18.0,18.0,68,0.00,,,0.00,VWS V14.01,2013-03-04 19:46:00,
2013-03-04 09:51:00,70.2,58.3,30.17,ESE,108,14.0,17.0,66,0.00,,,0.00,VWS V14.01,2013-03-04 19:51:00,
2013-03-04 09:56:00,70.3,58.4,30.17,ENE,58,15.0,15.0,66,0.00,,,0.00,VWS V14.01,2013-03-04 19:56:00,
2013-03-04 10:01:00,70.1,58.7,30.17,NE,56,15.0,15.0,67,0.00,,,0.00,VWS V14.01,2013-03-04 20:01:00,
2013-03-04 10:06:00,70.5,60.3,30.17,East,83,12.0,22.0,70,0.00,,,0.00,VWS V14.01,2013-03-04 20:06:00,
2013-03-04 10:11:00,70.5,61.0,30.17,ESE,108,18.0,19.0,72,0.00,,,0.00,VWS V14.01,2013-03-04 20:11:00,
2013-03-04 10:16:00,70.2,60.4,30.18,ESE,109,20.0,21.0,71,0.00,,,0.00,VWS V14.01,2013-03-04 20:16:00,
2013-03-04 10:21:00,71.2,60.9,30.18,ESE,105,19.0,19.0,70,0.00,,,0.00,VWS V14.01,2013-03-04 20:21:00,
2013-03-04 10:26:00,71.5,59.6,30.17,SE,126,16.0,16.0,66,0.00,,,0.00,VWS V14.01,2013-03-04 20:26:00,
2013-03-04 10:31:00,71.4,57.7,30.17,ESE,104,14.0,14.0,62,0.00,,,0.00,VWS V14.01,2013-03-04 20:31:00,
2013-03-04 10:36:00,71.2,58.0,30.17,East,88,11.0,12.0,63,0.00,,,0.00,VWS V14.01,2013-03-04 20:36:00,
2013-03-04 10:41:00,71.2,57.5,30.17,ENE,76,12.0,15.0,62,0.00,,,0.00,VWS V14.01,2013-03-04 20:41:00,
2013-03-04 10:47:00,71.1,57.4,30.17,ENE,67,8.0,12.0,62,0.00,,,0.00,VWS V14.01,2013-03-04 20:47:00,
2013-03-04 10:52:00,70.9,57.7,30.17,ESE,106,17.0,17.0,63,0.00,,,0.00,VWS V14.01,2013-03-04 20:52:00,
2013-03-04 10:57:00,71.0,58.2,30.17,ESE,105,10.0,10.0,64,0.00,,,0.00,VWS V14.01,2013-03-04 20:57:00,
2013-03-04 11:02:00,71.0,57.8,30.17,ESE,104,22.0,22.0,63,0.00,,,0.00,VWS V14.01,2013-03-04 21:02:00,
2013-03-04 11:07:00,71.5,57.8,30.17,ESE,103,17.0,19.0,62,0.00,,,0.00,VWS V14.01,2013-03-04 21:07:00,
2013-03-04 11:12:00,71.4,57.7,30.16,ENE,61,13.0,15.0,62,0.00,,,0.00,VWS V14.01,2013-03-04 21:12:00,
2013-03-04 11:17:00,71.1,57.0,30.16,East,91,12.0,13.0,61,0.00,,,0.00,VWS V14.01,2013-03-04 21:17:00,
2013-03-04 11:22:00,71.2,58.0,30.16,East,90,16.0,16.0,63,0.00,,,0.00,VWS V14.01,2013-03-04 21:22:00,
2013-03-04 11:27:00,71.7,58.0,30.16,ENE,62,11.0,15.0,62,0.00,,,0.00,VWS V14.01,2013-03-04 21:27:00,
2013-03-04 11:32:00,71.2,58.4,30.16,East,92,17.0,19.0,64,0.00,,,0.00,VWS V14.01,2013-03-04 21:32:00,
2013-03-04 11:37:00,71.1,59.2,30.16,East,85,16.0,20.0,66,0.00,,,0.00,VWS V14.01,2013-03-04 21:37:00,
2013-03-04 11:42:00,70.2,58.3,30.15,ENE,61,19.0,20.0,66,0.00,,,0.00,VWS V14.01,2013-03-04 21:42:00,
2013-03-04 11:47:00,70.7,59.6,30.15,East,98,16.0,18.0,68,0.00,,,0.00,VWS V14.01,2013-03-04 21:47:00,
2013-03-04 11:52:00,70.2,59.6,30.15,ESE,111,18.0,23.0,69,0.00,,,0.00,VWS V14.01,2013-03-04 21:52:00,
2013-03-04 11:57:00,70.1,59.5,30.15,NE,55,16.0,19.0,69,0.00,,,0.00,VWS V14.01,2013-03-04 21:57:00,
2013-03-04 12:03:00,70.9,61.4,30.14,ENE,71,11.0,11.0,72,0.00,,,0.00,VWS V14.01,2013-03-04 22:03:00,
2013-03-04 12:08:00,70.7,60.8,30.14,East,87,13.0,17.0,71,0.00,,,0.00,VWS V14.01,2013-03-04 22:08:00,
2013-03-04 12:13:00,70.6,59.1,30.14,ENE,66,15.0,21.0,67,0.00,,,0.00,VWS V14.01,2013-03-04 22:13:00,
2013-03-04 12:18:00,70.0,58.5,30.14,East,88,12.0,14.0,67,0.00,,,0.00,VWS V14.01,2013-03-04 22:18:00,
2013-03-04 12:23:00,70.0,58.1,30.14,ENE,57,17.0,17.0,66,0.00,,,0.00,VWS V14.01,2013-03-04 22:23:00,
2013-03-04 12:28:00,70.2,58.7,30.13,NE,42,18.0,18.0,67,0.00,,,0.00,VWS V14.01,2013-03-04 22:28:00,
2013-03-04 12:33:00,71.0,59.1,30.12,East,92,15.0,15.0,66,0.00,,,0.00,VWS V14.01,2013-03-04 22:33:00,
2013-03-04 12:38:00,71.1,57.4,30.12,East,95,15.0,15.0,62,0.00,,,0.00,VWS V14.01,2013-03-04 22:38:00,
2013-03-04 12:43:00,71.7,57.5,30.12,ENE,58,13.0,14.0,61,0.00,,,0.00,VWS V14.01,2013-03-04 22:43:00,
2013-03-04 12:48:00,71.8,56.7,30.12,East,98,17.0,17.0,59,0.00,,,0.00,VWS V14.01,2013-03-04 22:48:00,
2013-03-04 12:53:00,71.7,57.5,30.12,ESE,110,15.0,17.0,61,0.00,,,0.00,VWS V14.01,2013-03-04 22:53:00,
2013-03-04 12:58:00,72.0,57.8,30.12,ENE,61,19.0,19.0,61,0.00,,,0.00,VWS V14.01,2013-03-04 22:58:00,
2013-03-04 13:03:00,71.8,57.6,30.12,ENE,73,13.0,15.0,61,0.00,,,0.00,VWS V14.01,2013-03-04 23:03:00,
2013-03-04 13:09:00,71.9,58.2,30.11,ENE,70,16.0,20.0,62,0.00,,,0.00,VWS V14.01,2013-03-04 23:09:00,
2013-03-04 13:14:00,71.7,58.0,30.11,East,100,18.0,19.0,62,0.00,,,0.00,VWS V14.01,2013-03-04 23:14:00,
2013-03-04 13:19:00,71.5,58.3,30.11,ENE,76,14.0,20.0,63,0.00,,,0.00,VWS V14.01,2013-03-04 23:19:00,
2013-03-04 13:24:00,71.4,57.7,30.11,ENE,64,17.0,18.0,62,0.00,,,0.00,VWS V14.01,2013-03-04 23:24:00,
2013-03-04 13:29:00,71.2,58.4,30.11,ENE,65,14.0,16.0,64,0.00,,,0.00,VWS V14.01,2013-03-04 23:29:00,
2013-03-04 13:34:00,70.8,58.5,30.10,East,99,14.0,14.0,65,0.00,,,0.00,VWS V14.01,2013-03-04 23:34:00,
2013-03-04 13:39:00,70.5,59.4,30.11,East,84,10.0,16.0,68,0.00,,,0.00,VWS V14.01,2013-03-04 23:39:00,
2013-03-04 13:44:00,69.9,58.9,30.10,NE,42,16.0,17.0,68,0.00,,,0.00,VWS V14.01,2013-03-04 23:44:00,
2013-03-04 13:49:00,69.9,58.9,30.10,ENE,65,15.0,15.0,68,0.00,,,0.00,VWS V14.01,2013-03-04 23:49:00,
2013-03-04 13:54:00,69.7,59.1,30.10,ENE,73,18.0,18.0,69,0.00,,,0.00,VWS V14.01,2013-03-04 23:54:00,
2013-03-04 14:00:00,69.6,59.8,30.10,ENE,58,15.0,17.0,71,0.00,,,0.00,VWS V14.01,2013-03-05 00:00:00,
2013-03-04 14:05:00,69.9,60.1,30.10,ESE,111,16.0,16.0,71,0.00,,,0.00,VWS V14.01,2013-03-05 00:05:00,
2013-03-04 14:10:00,69.5,58.1,30.10,East,80,9.0,11.0,67,0.00,,,0.00,VWS V14.01,2013-03-05 00:10:00,
2013-03-04 14:15:00,69.4,58.8,30.10,NE,45,11.0,14.0,69,0.00,,,0.00,VWS V14.01,2013-03-05 00:15:00,
2013-03-04 14:20:00,69.7,59.1,30.09,ENE,75,12.0,16.0,69,0.00,,,0.00,VWS V14.01,2013-03-05 00:20:00,
2013-03-04 14:25:00,69.9,59.3,30.10,NNE,25,11.0,14.0,69,0.00,,,0.00,VWS V14.01,2013-03-05 00:25:00,
2013-03-04 14:30:00,69.6,59.4,30.09,ENE,57,9.0,13.0,70,0.00,,,0.00,VWS V14.01,2013-03-05 00:30:00,
2013-03-04 14:35:00,69.8,59.2,30.10,NE,40,13.0,19.0,69,0.00,,,0.00,VWS V14.01,2013-03-05 00:35:00,
2013-03-04 14:40:00,70.1,59.5,30.09,ENE,78,11.0,11.0,69,0.00,,,0.00,VWS V14.01,2013-03-05 00:40:00,
2013-03-04 14:45:00,70.1,59.5,30.09,ENE,64,11.0,16.0,69,0.00,,,0.00,VWS V14.01,2013-03-05 00:45:00,
2013-03-04 14:50:00,69.6,59.0,30.09,ENE,72,11.0,11.0,69,0.00,,,0.00,VWS V14.01,2013-03-05 00:50:00,
2013-03-04 14:55:00,69.5,59.7,30.09,NE,55,7.0,12.0,71,0.00,,,0.00,VWS V14.01,2013-03-05 00:55:00,
2013-03-04 15:00:00,69.5,60.5,30.09,ENE,57,11.0,11.0,73,0.00,,,0.00,VWS V14.01,2013-03-05 01:00:00,
2013-03-04 15:05:00,69.2,59.8,30.09,ENE,59,10.0,14.0,72,0.00,,,0.00,VWS V14.01,2013-03-05 01:05:00,
2013-03-04 15:10:00,69.2,59.8,30.09,ENE,66,10.0,10.0,72,0.00,,,0.00,VWS V14.01,2013-03-05 01:10:00,
2013-03-04 15:15:00,68.9,59.5,30.09,NE,52,14.0,16.0,72,0.00,,,0.00,VWS V14.01,2013-03-05 01:15:00,
2013-03-04 15:20:00,68.9,59.1,30.09,ENE,76,13.0,13.0,71,0.00,,,0.00,VWS V14.01,2013-03-05 01:20:00,
2013-03-04 15:26:00,69.3,60.3,30.08,ENE,67,12.0,14.0,73,0.00,,,0.00,VWS V14.01,2013-03-05 01:26:00,
2013-03-04 15:31:00,69.1,59.7,30.08,ENE,63,10.0,13.0,72,0.00,,,0.00,VWS V14.01,2013-03-05 01:31:00,
2013-03-04 15:36:00,69.2,60.2,30.08,East,99,10.0,10.0,73,0.00,,,0.00,VWS V14.01,2013-03-05 01:36:00,
2013-03-04 15:41:00,68.8,60.2,30.08,East,80,10.0,13.0,74,0.00,,,0.00,VWS V14.01,2013-03-05 01:41:00,
2013-03-04 15:46:00,68.6,60.0,30.09,East,101,14.0,14.0,74,0.00,,,0.00,VWS V14.01,2013-03-05 01:46:00,
2013-03-04 15:51:00,68.6,60.0,30.08,East,87,7.0,10.0,74,0.00,,,0.00,VWS V14.01,2013-03-05 01:51:00,
2013-03-04 15:56:00,68.6,60.0,30.08,ENE,66,15.0,15.0,74,0.00,,,0.00,VWS V14.01,2013-03-05 01:56:00,
2013-03-04 16:01:00,68.7,60.1,30.09,ENE,63,11.0,11.0,74,0.00,,,0.00,VWS V14.01,2013-03-05 02:01:00,
2013-03-04 16:06:00,68.6,60.0,30.08,NE,54,7.0,13.0,74,0.00,,,0.00,VWS V14.01,2013-03-05 02:06:00,
2013-03-04 16:11:00,68.5,59.9,30.09,NE,38,12.0,14.0,74,0.00,,,0.00,VWS V14.01,2013-03-05 02:11:00,
2013-03-04 16:16:00,68.4,60.2,30.09,NE,47,13.0,15.0,75,0.00,,,0.00,VWS V14.01,2013-03-05 02:16:00,
2013-03-04 16:21:00,68.5,60.3,30.09,NE,54,9.0,13.0,75,0.00,,,0.00,VWS V14.01,2013-03-05 02:21:00,
2013-03-04 16:27:00,68.4,60.2,30.09,NE,47,9.0,13.0,75,0.00,,,0.00,VWS V14.01,2013-03-05 02:27:00,
2013-03-04 16:32:00,68.4,60.5,30.09,NE,49,12.0,16.0,76,0.00,,,0.00,VWS V14.01,2013-03-05 02:32:00,
2013-03-04 16:37:00,68.5,61.0,30.09,ENE,66,16.0,16.0,77,0.00,,,0.00,VWS V14.01,2013-03-05 02:37:00,
2013-03-04 16:42:00,68.3,60.8,30.09,East,82,9.0,11.0,77,0.00,,,0.00,VWS V14.01,2013-03-05 02:42:00,
2013-03-04 16:47:00,68.3,61.2,30.09,NE,39,9.0,12.0,78,0.00,,,0.00,VWS V14.01,2013-03-05 02:47:00,
2013-03-04 16:52:00,68.3,60.8,30.09,ENE,57,10.0,12.0,77,0.00,,,0.00,VWS V14.01,2013-03-05 02:52:00,
2013-03-04 16:57:00,68.1,60.6,30.09,NE,54,9.0,9.0,77,0.00,,,0.00,VWS V14.01,2013-03-05 02:57:00,
2013-03-04 17:02:00,68.1,60.6,30.09,ENE,61,14.0,14.0,77,0.00,,,0.00,VWS V14.01,2013-03-05 03:02:00,
2013-03-04 17:07:00,68.0,60.5,30.09,ESE,102,13.0,13.0,77,0.00,,,0.00,VWS V14.01,2013-03-05 03:07:00,
2013-03-04 17:12:00,68.0,60.5,30.09,East,91,17.0,17.0,77,0.00,,,0.00,VWS V14.01,2013-03-05 03:12:00,
2013-03-04 17:17:00,67.9,60.4,30.09,NE,50,10.0,17.0,77,0.00,,,0.00,VWS V14.01,2013-03-05 03:17:00,
2013-03-04 17:22:00,67.8,60.7,30.09,ENE,57,10.0,12.0,78,0.00,,,0.00,VWS V14.01,2013-03-05 03:22:00,
2013-03-04 17:27:00,67.8,60.7,30.09,NE,53,13.0,18.0,78,0.00,,,0.00,VWS V14.01,2013-03-05 03:27:00,
2013-03-04 17:32:00,67.7,60.6,30.10,NE,50,6.0,10.0,78,0.00,,,0.00,VWS V14.01,2013-03-05 03:32:00,
2013-03-04 17:37:00,67.7,60.6,30.10,ENE,58,9.0,9.0,78,0.00,,,0.00,VWS V14.01,2013-03-05 03:37:00,
2013-03-04 17:42:00,67.7,60.6,30.10,NE,50,9.0,11.0,78,0.00,,,0.00,VWS V14.01,2013-03-05 03:42:00,
2013-03-04 17:47:00,67.6,60.5,30.10,ENE,59,10.0,11.0,78,0.00,,,0.00,VWS V14.01,2013-03-05 03:47:00,
2013-03-04 17:53:00,67.6,60.5,30.10,ENE,60,9.0,9.0,78,0.00,,,0.00,VWS V14.01,2013-03-05 03:53:00,
2013-03-04 17:58:00,67.5,60.4,30.10,ENE,57,12.0,15.0,78,0.00,,,0.00,VWS V14.01,2013-03-05 03:58:00,
2013-03-04 18:03:00,67.5,60.0,30.10,ENE,76,13.0,13.0,77,0.00,,,0.00,VWS V14.01,2013-03-05 04:03:00,
2013-03-04 18:08:00,67.5,60.4,30.10,ENE,59,10.0,10.0,78,0.00,,,0.00,VWS V14.01,2013-03-05 04:08:00,
2013-03-04 18:13:00,67.5,60.4,30.10,ENE,72,10.0,11.0,78,0.00,,,0.00,VWS V14.01,2013-03-05 04:13:00,
2013-03-04 18:18:00,67.4,60.3,30.10,NE,45,9.0,12.0,78,0.00,,,0.00,VWS V14.01,2013-03-05 04:18:00,
2013-03-04 18:23:00,67.3,60.2,30.10,NE,42,6.0,9.0,78,0.00,,,0.00,VWS V14.01,2013-03-05 04:23:00,
2013-03-04 18:28:00,67.4,60.3,30.11,ENE,68,9.0,9.0,78,0.00,,,0.00,VWS V14.01,2013-03-05 04:28:00,
2013-03-04 18:33:00,67.3,60.2,30.11,North,9,10.0,10.0,78,0.00,,,0.00,VWS V14.01,2013-03-05 04:33:00,
2013-03-04 18:38:00,67.3,60.2,30.11,ENE,67,5.0,6.0,78,0.00,,,0.00,VWS V14.01,2013-03-05 04:38:00,
2013-03-04 18:43:00,67.3,60.2,30.11,NE,46,5.0,5.0,78,0.00,,,0.00,VWS V14.01,2013-03-05 04:43:00,
2013-03-04 18:48:00,67.2,60.1,30.11,NNE,16,6.0,6.0,78,0.00,,,0.00,VWS V14.01,2013-03-05 04:48:00,
2013-03-04 18:53:00,67.2,60.1,30.11,NE,56,9.0,11.0,78,0.00,,,0.00,VWS V14.01,2013-03-05 04:53:00,
2013-03-04 18:58:00,67.2,60.1,30.11,ENE,68,8.0,8.0,78,0.00,,,0.00,VWS V14.01,2013-03-05 04:58:00,
2013-03-04 19:00:00,67.2,60.1,30.11,NE,54,10.0,10.0,78,0.00,,,0.00,VWS V14.01,2013-03-05 05:00:00,
2013-03-04 19:03:00,67.2,60.5,30.11,NE,52,11.0,11.0,79,0.00,,,0.00,VWS V14.01,2013-03-05 05:03:00,
2013-03-04 19:08:00,67.2,60.5,30.11,ENE,71,8.0,9.0,79,0.00,,,0.00,VWS V14.01,2013-03-05 05:08:00,
2013-03-04 19:13:00,67.2,60.5,30.11,ENE,76,7.0,8.0,79,0.00,,,0.00,VWS V14.01,2013-03-05 05:13:00,
2013-03-04 19:18:00,67.2,60.5,30.11,NE,50,9.0,10.0,79,0.00,,,0.00,VWS V14.01,2013-03-05 05:18:00,
2013-03-04 19:23:00,67.2,60.5,30.11,NE,55,12.0,12.0,79,0.00,,,0.00,VWS V14.01,2013-03-05 05:23:00,
2013-03-04 19:29:00,67.2,60.5,30.11,ENE,61,10.0,10.0,79,0.00,,,0.00,VWS V14.01,2013-03-05 05:29:00,
2013-03-04 19:34:00,67.2,60.5,30.12,NE,52,9.0,10.0,79,0.00,,,0.00,VWS V14.01,2013-03-05 05:34:00,
2013-03-04 19:39:00,67.1,60.4,30.12,SE,130,9.0,11.0,79,0.00,,,0.00,VWS V14.01,2013-03-05 05:39:00,
2013-03-04 19:44:00,67.1,60.7,30.12,ENE,60,7.0,10.0,80,0.00,,,0.00,VWS V14.01,2013-03-05 05:44:00,
2013-03-04 19:49:00,66.9,60.2,30.12,ENE,59,6.0,7.0,79,0.00,,,0.00,VWS V14.01,2013-03-05 05:49:00,
2013-03-04 19:54:00,66.8,60.4,30.12,ENE,72,11.0,12.0,80,0.00,,,0.00,VWS V14.01,2013-03-05 05:54:00,
2013-03-04 19:59:00,67.0,60.3,30.12,ENE,66,7.0,7.0,79,0.00,,,0.00,VWS V14.01,2013-03-05 05:59:00,
2013-03-04 20:04:00,66.8,60.1,30.13,NE,48,8.0,8.0,79,0.00,,,0.00,VWS V14.01,2013-03-05 06:04:00,
2013-03-04 20:09:00,66.8,60.1,30.13,NE,40,10.0,12.0,79,0.00,,,0.00,VWS V14.01,2013-03-05 06:09:00,
2013-03-04 20:14:00,66.7,60.3,30.13,ENE,64,9.0,10.0,80,0.00,,,0.00,VWS V14.01,2013-03-05 06:14:00,
2013-03-04 20:20:00,66.6,60.2,30.13,ENE,71,6.0,9.0,80,0.00,,,0.00,VWS V14.01,2013-03-05 06:20:00,
2013-03-04 20:25:00,66.6,59.9,30.13,NE,40,7.0,8.0,79,0.00,,,0.00,VWS V14.01,2013-03-05 06:25:00,
2013-03-04 20:30:00,66.6,59.9,30.13,NE,54,5.0,6.0,79,0.00,,,0.00,VWS V14.01,2013-03-05 06:30:00,
2013-03-04 20:35:00,66.7,59.6,30.13,East,83,7.0,8.0,78,0.00,,,0.00,VWS V14.01,2013-03-05 06:35:00,
2013-03-04 20:40:00,66.8,59.4,30.14,NE,35,7.0,7.0,77,0.00,,,0.00,VWS V14.01,2013-03-05 06:40:00,
2013-03-04 20:45:00,66.9,59.5,30.14,NNE,31,11.0,11.0,77,0.00,,,0.00,VWS V14.01,2013-03-05 06:45:00,
2013-03-04 20:50:00,67.1,59.7,30.14,NE,50,4.0,8.0,77,0.00,,,0.00,VWS V14.01,2013-03-05 06:50:00,
2013-03-04 20:55:00,67.2,59.8,30.14,East,83,7.0,8.0,77,0.00,,,0.00,VWS V14.01,2013-03-05 06:55:00,
2013-03-04 21:01:00,67.0,59.9,30.14,East,97,7.0,7.0,78,0.00,,,0.00,VWS V14.01,2013-03-05 07:01:00,
2013-03-04 21:06:00,66.9,59.8,30.14,ENE,67,8.0,8.0,78,0.00,,,0.00,VWS V14.01,2013-03-05 07:06:00,
2013-03-04 21:11:00,66.9,59.8,30.14,NE,41,6.0,6.0,78,0.00,,,0.00,VWS V14.01,2013-03-05 07:11:00,
2013-03-04 21:16:00,67.0,59.9,30.14,ENE,71,6.0,6.0,78,0.00,,,0.00,VWS V14.01,2013-03-05 07:16:00,
2013-03-04 21:21:00,66.9,59.8,30.14,NE,40,6.0,8.0,78,0.00,,,0.00,VWS V14.01,2013-03-05 07:21:00,
2013-03-04 21:26:00,66.9,59.8,30.14,ENE,57,6.0,9.0,78,0.00,,,0.00,VWS V14.01,2013-03-05 07:26:00,
2013-03-04 21:31:00,66.8,59.7,30.14,East,99,7.0,8.0,78,0.00,,,0.00,VWS V14.01,2013-03-05 07:31:00,
2013-03-04 21:36:00,66.6,59.5,30.14,ENE,63,7.0,9.0,78,0.00,,,0.00,VWS V14.01,2013-03-05 07:36:00,
2013-03-04 21:41:00,66.6,59.2,30.15,ENE,74,7.0,8.0,77,0.00,,,0.00,VWS V14.01,2013-03-05 07:41:00,
2013-03-04 21:47:00,66.6,59.2,30.14,East,99,9.0,9.0,77,0.00,,,0.00,VWS V14.01,2013-03-05 07:47:00,
2013-03-04 21:52:00,66.6,58.8,30.14,ENE,68,5.0,5.0,76,0.00,,,0.00,VWS V14.01,2013-03-05 07:52:00,
2013-03-04 21:57:00,66.4,58.2,30.14,ENE,76,7.0,11.0,75,0.00,,,0.00,VWS V14.01,2013-03-05 07:57:00,
2013-03-04 22:02:00,66.4,58.2,30.14,East,87,8.0,11.0,75,0.00,,,0.00,VWS V14.01,2013-03-05 08:02:00,
2013-03-04 22:07:00,66.4,57.9,30.14,East,93,11.0,11.0,74,0.00,,,0.00,VWS V14.01,2013-03-05 08:07:00,
2013-03-04 22:12:00,66.4,57.9,30.14,East,88,7.0,7.0,74,0.00,,,0.00,VWS V14.01,2013-03-05 08:12:00,
2013-03-04 22:17:00,66.6,57.3,30.14,ENE,71,8.0,8.0,72,0.00,,,0.00,VWS V14.01,2013-03-05 08:17:00,
2013-03-04 22:22:00,66.6,56.5,30.14,NE,52,3.0,6.0,70,0.00,,,0.00,VWS V14.01,2013-03-05 08:22:00,
2013-03-04 22:27:00,66.6,56.1,30.14,NNE,30,10.0,10.0,69,0.00,,,0.00,VWS V14.01,2013-03-05 08:27:00,
2013-03-04 22:32:00,66.5,56.4,30.14,ENE,76,9.0,9.0,70,0.00,,,0.00,VWS V14.01,2013-03-05 08:32:00,
2013-03-04 22:37:00,66.4,56.3,30.14,NE,48,7.0,8.0,70,0.00,,,0.00,VWS V14.01,2013-03-05 08:37:00,
2013-03-04 22:42:00,66.4,55.9,30.14,NNE,30,6.0,7.0,69,0.00,,,0.00,VWS V14.01,2013-03-05 08:42:00,
2013-03-04 22:47:00,66.5,55.6,30.14,NNE,27,5.0,5.0,68,0.00,,,0.00,VWS V14.01,2013-03-05 08:47:00,
2013-03-04 22:52:00,66.7,55.4,30.14,NNE,24,6.0,7.0,67,0.00,,,0.00,VWS V14.01,2013-03-05 08:52:00,
2013-03-04 22:58:00,66.8,55.5,30.14,ENE,73,3.0,4.0,67,0.00,,,0.00,VWS V14.01,2013-03-05 08:58:00,
2013-03-04 23:03:00,66.7,55.8,30.14,NE,42,5.0,5.0,68,0.00,,,0.00,VWS V14.01,2013-03-05 09:03:00,
2013-03-04 23:08:00,66.7,55.8,30.14,NE,41,4.0,7.0,68,0.00,,,0.00,VWS V14.01,2013-03-05 09:08:00,
2013-03-04 23:13:00,66.6,56.1,30.14,NE,40,4.0,9.0,69,0.00,,,0.00,VWS V14.01,2013-03-05 09:13:00,
2013-03-04 23:18:00,66.4,55.9,30.14,East,96,8.0,8.0,69,0.00,,,0.00,VWS V14.01,2013-03-05 09:18:00,
2013-03-04 23:23:00,66.4,56.3,30.14,NE,40,5.0,6.0,70,0.00,,,0.00,VWS V14.01,2013-03-05 09:23:00,
2013-03-04 23:28:00,66.4,56.7,30.14,NE,36,6.0,6.0,71,0.00,,,0.00,VWS V14.01,2013-03-05 09:28:00,
2013-03-04 23:33:00,66.4,57.1,30.14,NE,56,8.0,8.0,72,0.00,,,0.00,VWS V14.01,2013-03-05 09:33:00,
2013-03-04 23:38:00,66.4,57.1,30.13,NNE,28,5.0,5.0,72,0.00,,,0.00,VWS V14.01,2013-03-05 09:38:00,
2013-03-04 23:43:00,66.4,56.7,30.13,ENE,57,9.0,9.0,71,0.00,,,0.00,VWS V14.01,2013-03-05 09:43:00,
2013-03-04 23:48:00,66.6,57.3,30.13,ENE,64,4.0,8.0,72,0.00,,,0.00,VWS V14.01,2013-03-05 09:48:00,
2013-03-04 23:53:00,66.6,57.3,30.13,NE,40,5.0,7.0,72,0.00,,,0.00,VWS V14.01,2013-03-05 09:53:00,
2013-03-04 23:58:00,66.6,57.3,30.13,ENE,57,4.0,4.0,72,0.00,,,0.00,VWS V14.01,2013-03-05 09:58:00,